createdAt,value
2022-12-31T00:01:52.851Z,48.97
2022-12-31T00:04:56.520Z,38.95
2022-12-31T00:07:59.879Z,30.60
2022-12-31T00:11:03.504Z,26.83
2022-12-31T00:14:07.293Z,33.53
2022-12-31T00:17:11.249Z,32.85
2022-12-31T00:20:14.633Z,31.73
2022-12-31T00:23:18.215Z,34.70
2022-12-31T00:26:24.989Z,38.88
2022-12-31T00:29:28.594Z,30.60
2022-12-31T00:32:31.910Z,32.13
2022-12-31T00:35:36.546Z,37.50
2022-12-31T00:38:41.383Z,35.42
2022-12-31T00:41:45.508Z,31.75
2022-12-31T00:44:49.042Z,35.90
2022-12-31T00:47:55.103Z,33.45
2022-12-31T00:50:58.765Z,31.20
2022-12-31T00:54:02.357Z,41.40
2022-12-31T00:57:05.517Z,35.75
2022-12-31T01:00:10.980Z,38.07
2022-12-31T01:03:14.222Z,42.47
2022-12-31T01:06:18.329Z,38.22
2022-12-31T01:09:21.898Z,41.65
2022-12-31T01:12:25.793Z,52.75
2022-12-31T01:15:29.106Z,57.20
2022-12-31T01:18:34.407Z,61.92
2022-12-31T01:21:40.942Z,78.57
2022-12-31T01:24:44.636Z,80.00
2022-12-31T01:27:47.757Z,77.95
2022-12-31T01:30:54.145Z,90.33
2022-12-31T01:33:58.034Z,84.87
2022-12-31T01:37:01.545Z,88.85
2022-12-31T01:40:05.900Z,91.87
2022-12-31T01:43:18.176Z,101.95
2022-12-31T01:46:40.446Z,77.43
2022-12-31T01:49:58.571Z,80.75
2022-12-31T01:53:05.195Z,81.93
2022-12-31T01:56:09.204Z,88.85
2022-12-31T01:59:17.751Z,79.25
2022-12-31T02:02:21.450Z,76.07
2022-12-31T02:05:38.311Z,88.50
2022-12-31T02:08:42.327Z,70.18
2022-12-31T02:11:46.319Z,78.72
2022-12-31T02:14:53.846Z,67.15
2022-12-31T02:18:27.077Z,70.43
2022-12-31T02:21:30.604Z,64.57
2022-12-31T02:25:06.594Z,70.80
2022-12-31T02:28:34.821Z,67.37
2022-12-31T02:31:50.707Z,62.17
2022-12-31T02:35:03.283Z,63.00
2022-12-31T02:38:14.823Z,55.70
2022-12-31T02:41:38.337Z,55.28
2022-12-31T02:44:42.914Z,49.38
2022-12-31T02:48:25.340Z,53.60
2022-12-31T02:51:45.278Z,56.25
2022-12-31T02:54:54.700Z,58.72
2022-12-31T02:58:11.488Z,64.20
2022-12-31T03:01:44.078Z,64.87
2022-12-31T03:04:52.308Z,67.07
2022-12-31T03:07:55.515Z,58.30
2022-12-31T03:10:58.979Z,70.15
2022-12-31T03:14:02.456Z,77.05
2022-12-31T03:17:06.176Z,77.25
2022-12-31T03:20:28.483Z,69.75
2022-12-31T03:23:33.684Z,76.50
2022-12-31T03:26:36.853Z,69.32
2022-12-31T03:29:40.430Z,75.37
2022-12-31T03:32:47.301Z,76.80
2022-12-31T03:35:53.196Z,63.17
2022-12-31T03:38:56.935Z,75.37
2022-12-31T03:42:00.512Z,75.47
2022-12-31T03:45:04.908Z,89.15
2022-12-31T03:48:09.630Z,95.00
2022-12-31T03:51:13.620Z,83.72
2022-12-31T03:54:17.363Z,78.78
2022-12-31T03:57:20.634Z,76.72
2022-12-31T04:00:24.525Z,76.90
2022-12-31T04:03:28.887Z,79.45
2022-12-31T04:06:32.052Z,82.93
2022-12-31T04:09:35.826Z,76.13
2022-12-31T04:12:39.354Z,80.57
2022-12-31T04:15:42.798Z,65.90
2022-12-31T04:18:46.133Z,66.72
2022-12-31T04:21:49.862Z,76.93
2022-12-31T04:24:53.084Z,77.50
2022-12-31T04:27:58.189Z,84.03
2022-12-31T04:31:01.399Z,75.03
2022-12-31T04:34:04.961Z,72.40
2022-12-31T04:37:08.292Z,75.25
2022-12-31T04:40:14.413Z,73.83
2022-12-31T04:43:18.165Z,74.12
2022-12-31T04:46:29.325Z,78.22
2022-12-31T04:49:32.692Z,80.50
2022-12-31T04:52:42.333Z,69.22
2022-12-31T04:55:46.284Z,83.20
2022-12-31T04:58:50.325Z,77.35
2022-12-31T05:01:53.688Z,67.73
2022-12-31T05:04:57.411Z,74.35
2022-12-31T05:08:00.620Z,74.55
2022-12-31T05:11:05.332Z,72.83
2022-12-31T05:14:08.463Z,71.37
2022-12-31T05:17:12.211Z,75.57
2022-12-31T05:20:15.529Z,67.00
2022-12-31T05:23:22.775Z,77.03
2022-12-31T05:26:26.416Z,67.22
2022-12-31T05:29:31.462Z,69.30
2022-12-31T05:32:36.869Z,73.70
2022-12-31T05:35:40.180Z,62.62
2022-12-31T05:38:43.298Z,61.65
2022-12-31T05:41:46.719Z,62.10
2022-12-31T05:44:50.294Z,65.65
2022-12-31T05:47:53.760Z,68.40
2022-12-31T05:50:57.446Z,67.65
2022-12-31T05:54:00.847Z,73.75
2022-12-31T05:57:04.789Z,66.18
2022-12-31T06:00:10.276Z,60.65
2022-12-31T06:03:16.614Z,60.03
2022-12-31T06:06:21.257Z,65.45
2022-12-31T06:09:24.622Z,56.08
2022-12-31T06:12:28.337Z,65.77
2022-12-31T06:15:33.239Z,65.75
2022-12-31T06:18:37.611Z,63.15
2022-12-31T06:21:40.779Z,71.10
2022-12-31T06:24:44.232Z,64.65
2022-12-31T06:27:48.021Z,72.32
2022-12-31T06:31:05.976Z,66.25
2022-12-31T06:34:12.726Z,73.57
2022-12-31T06:37:16.236Z,60.10
2022-12-31T06:40:19.436Z,58.45
2022-12-31T06:43:23.092Z,57.23
2022-12-31T06:46:26.940Z,53.63
2022-12-31T06:49:30.916Z,61.75
2022-12-31T06:52:34.200Z,63.40
2022-12-31T06:55:37.985Z,59.13
2022-12-31T06:58:43.087Z,63.33
2022-12-31T07:02:05.239Z,62.80
2022-12-31T07:05:30.288Z,55.67
2022-12-31T07:09:00.005Z,53.58
2022-12-31T07:12:44.014Z,54.83
2022-12-31T07:16:17.503Z,53.37
2022-12-31T07:19:33.269Z,55.70
2022-12-31T07:22:37.540Z,63.15
2022-12-31T07:25:51.616Z,55.08
2022-12-31T07:29:06.131Z,51.45
2022-12-31T07:32:40.704Z,51.67
2022-12-31T07:36:12.377Z,61.35
2022-12-31T07:39:27.354Z,52.20
2022-12-31T07:42:44.853Z,61.10
2022-12-31T07:46:13.657Z,56.10
2022-12-31T07:49:17.718Z,53.87
2022-12-31T07:52:22.314Z,62.30
2022-12-31T07:55:29.189Z,60.03
2022-12-31T07:58:46.324Z,54.88
2022-12-31T08:01:57.151Z,71.03
2022-12-31T08:05:30.496Z,65.05
2022-12-31T08:09:16.331Z,71.03
2022-12-31T08:12:21.578Z,75.43
2022-12-31T08:15:30.138Z,70.78
2022-12-31T08:18:37.070Z,55.83
2022-12-31T08:21:53.881Z,58.17
2022-12-31T08:25:15.982Z,57.62
2022-12-31T08:28:41.225Z,50.08
2022-12-31T08:32:20.662Z,58.08
2022-12-31T08:35:33.807Z,53.55
2022-12-31T08:39:00.663Z,61.58
2022-12-31T08:42:14.507Z,59.55
2022-12-31T08:45:22.965Z,63.27
2022-12-31T08:48:26.891Z,65.65
2022-12-31T08:51:31.150Z,67.40
2022-12-31T08:54:35.077Z,69.77
2022-12-31T08:58:02.925Z,53.30
2022-12-31T09:01:08.147Z,70.15
2022-12-31T09:04:25.164Z,71.82
2022-12-31T09:07:33.913Z,71.47
2022-12-31T09:10:57.859Z,76.53
2022-12-31T09:14:21.469Z,84.28
2022-12-31T09:17:25.711Z,65.67
2022-12-31T09:20:43.052Z,68.40
2022-12-31T09:23:52.965Z,63.63
2022-12-31T09:27:06.309Z,71.83
2022-12-31T09:30:21.571Z,53.15
2022-12-31T09:33:27.703Z,63.08
2022-12-31T09:36:39.714Z,57.83
2022-12-31T09:39:45.847Z,63.50
2022-12-31T09:43:14.590Z,61.47
2022-12-31T09:46:42.783Z,62.65
2022-12-31T09:49:58.135Z,59.70
2022-12-31T09:53:19.511Z,65.82
2022-12-31T09:57:01.976Z,77.25
2022-12-31T10:00:44.212Z,60.40
2022-12-31T10:03:59.889Z,69.07
2022-12-31T10:07:12.865Z,65.18
2022-12-31T10:10:59.298Z,81.55
2022-12-31T10:14:17.243Z,61.53
2022-12-31T10:17:50.098Z,53.23
2022-12-31T10:21:25.079Z,50.72
2022-12-31T10:24:49.376Z,58.08
2022-12-31T10:28:00.500Z,58.05
2022-12-31T10:31:41.070Z,57.38
2022-12-31T10:34:58.665Z,62.60
2022-12-31T10:38:30.106Z,53.08
2022-12-31T10:41:55.783Z,54.33
2022-12-31T10:45:24.134Z,53.05
2022-12-31T10:48:57.941Z,57.95
2022-12-31T10:52:15.656Z,61.88
2022-12-31T10:55:53.100Z,59.40
2022-12-31T10:59:27.388Z,62.30
2022-12-31T11:03:01.120Z,56.28
2022-12-31T11:06:34.124Z,65.55
2022-12-31T11:09:56.345Z,61.00
2022-12-31T11:13:37.289Z,50.88
2022-12-31T11:17:02.444Z,56.85
2022-12-31T11:20:43.095Z,58.35
2022-12-31T11:24:04.833Z,58.28
2022-12-31T11:27:36.269Z,59.42
2022-12-31T11:31:04.807Z,57.67
2022-12-31T11:34:20.647Z,56.00
2022-12-31T11:37:30.094Z,54.80
2022-12-31T11:40:54.302Z,59.38
2022-12-31T11:44:22.560Z,57.95
2022-12-31T11:51:43.089Z,59.97
2022-12-31T11:55:19.597Z,58.38
2022-12-31T11:58:31.305Z,59.42
2022-12-31T12:01:51.859Z,57.33
2022-12-31T12:05:10.682Z,58.67
2022-12-31T12:08:14.916Z,55.03
2022-12-31T12:11:25.691Z,59.17
2022-12-31T12:14:31.591Z,55.70
2022-12-31T12:17:35.796Z,58.63
2022-12-31T12:20:44.389Z,61.67
2022-12-31T12:24:01.355Z,55.22
2022-12-31T12:27:21.691Z,65.10
2022-12-31T12:30:28.405Z,58.28
2022-12-31T12:33:48.121Z,63.13
2022-12-31T12:36:51.730Z,60.15
2022-12-31T12:39:59.281Z,55.28
2022-12-31T12:43:03.370Z,57.05
2022-12-31T12:46:33.427Z,60.03
2022-12-31T12:49:40.390Z,65.63
2022-12-31T12:53:08.126Z,58.35
2022-12-31T12:56:33.993Z,53.15
2022-12-31T12:59:40.871Z,59.60
2022-12-31T13:03:16.494Z,55.83
2022-12-31T13:06:46.220Z,58.63
2022-12-31T13:09:59.446Z,55.70
2022-12-31T13:13:25.439Z,57.47
2022-12-31T13:16:42.989Z,57.87
2022-12-31T13:20:08.140Z,58.55
2022-12-31T13:23:14.165Z,59.67
2022-12-31T13:26:28.562Z,54.95
2022-12-31T13:29:35.050Z,52.77
2022-12-31T13:32:42.950Z,60.30
2022-12-31T13:35:49.118Z,67.15
2022-12-31T13:38:59.156Z,67.95
2022-12-31T13:42:21.464Z,65.77
2022-12-31T13:45:37.294Z,65.30
2022-12-31T13:48:49.814Z,70.32
2022-12-31T13:52:06.278Z,62.80
2022-12-31T13:55:18.569Z,79.33
2022-12-31T13:58:36.131Z,65.32
2022-12-31T14:01:50.753Z,84.10
2022-12-31T14:05:00.727Z,86.80
2022-12-31T14:08:06.587Z,107.20
2022-12-31T14:12:01.479Z,105.90
2022-12-31T14:15:16.689Z,89.35
2022-12-31T14:18:46.275Z,112.78
2022-12-31T14:22:03.686Z,86.47
2022-12-31T14:25:26.539Z,100.22
2022-12-31T14:28:38.334Z,89.70
2022-12-31T14:31:49.840Z,73.40
2022-12-31T14:35:06.634Z,68.80
2022-12-31T14:38:32.610Z,81.22
2022-12-31T14:41:49.047Z,77.28
2022-12-31T14:45:04.296Z,73.18
2022-12-31T14:48:49.572Z,61.70
2022-12-31T14:51:53.116Z,58.30
2022-12-31T14:55:02.725Z,66.15
2022-12-31T14:58:28.091Z,63.50
2022-12-31T15:01:45.225Z,64.23
2022-12-31T15:04:49.073Z,61.65
2022-12-31T15:07:52.078Z,68.62
2022-12-31T15:11:10.705Z,64.72
2022-12-31T15:14:37.391Z,68.03
2022-12-31T15:17:46.983Z,86.07
2022-12-31T15:21:19.405Z,79.57
2022-12-31T15:24:25.453Z,76.55
2022-12-31T15:27:38.972Z,75.57
2022-12-31T15:30:48.755Z,74.22
2022-12-31T15:34:23.776Z,79.50
2022-12-31T15:37:33.346Z,74.68
2022-12-31T15:40:48.471Z,67.93
2022-12-31T15:44:01.184Z,71.43
2022-12-31T15:47:35.517Z,90.70
2022-12-31T15:50:40.003Z,72.93
2022-12-31T15:53:52.322Z,80.30
2022-12-31T15:56:55.859Z,85.90
2022-12-31T16:00:08.091Z,84.90
2022-12-31T16:03:30.319Z,104.50
2022-12-31T16:06:38.254Z,88.07
2022-12-31T16:09:41.994Z,122.43
2022-12-31T16:12:45.859Z,167.65
2022-12-31T16:16:08.963Z,123.90
2022-12-31T16:19:34.078Z,101.97
2022-12-31T16:22:40.117Z,108.55
2022-12-31T16:25:45.579Z,106.68
2022-12-31T16:28:49.645Z,110.03
2022-12-31T16:31:54.507Z,116.95
2022-12-31T16:34:58.056Z,121.32
2022-12-31T16:38:12.474Z,158.00
2022-12-31T16:41:17.780Z,131.43
2022-12-31T16:44:26.974Z,156.18
2022-12-31T16:47:40.602Z,191.40
2022-12-31T16:50:46.598Z,152.75
2022-12-31T16:53:50.664Z,144.20
2022-12-31T16:56:54.269Z,154.60
2022-12-31T17:00:04.458Z,159.97
2022-12-31T17:03:15.656Z,161.77
2022-12-31T17:06:21.555Z,166.23
2022-12-31T17:09:34.321Z,148.30
2022-12-31T17:13:28.446Z,137.07
2022-12-31T17:16:18.526Z,161.20
2022-12-31T17:19:43.927Z,173.68
2022-12-31T17:22:47.324Z,160.53
2022-12-31T17:26:03.360Z,166.30
2022-12-31T17:29:26.111Z,155.40
2022-12-31T17:32:36.847Z,151.67
2022-12-31T17:35:42.601Z,155.63
2022-12-31T17:38:46.190Z,162.65
2022-12-31T17:41:53.611Z,147.43
2022-12-31T17:45:01.713Z,155.30
2022-12-31T17:48:05.865Z,162.77
2022-12-31T17:51:12.280Z,154.35
2022-12-31T17:54:21.089Z,164.97
2022-12-31T17:57:28.256Z,191.20
2022-12-31T18:00:33.419Z,218.32
2022-12-31T18:03:37.025Z,238.47
2022-12-31T18:06:40.483Z,231.85
2022-12-31T18:09:44.013Z,243.55
2022-12-31T18:12:48.643Z,233.77
2022-12-31T18:15:53.563Z,229.87
2022-12-31T18:18:59.209Z,197.20
2022-12-31T18:22:02.929Z,206.30
2022-12-31T18:25:07.572Z,196.47
2022-12-31T18:28:12.001Z,177.45
2022-12-31T18:31:20.616Z,154.77
2022-12-31T18:34:24.116Z,154.83
2022-12-31T18:37:29.060Z,176.82
2022-12-31T18:40:33.187Z,168.30
2022-12-31T18:43:36.563Z,152.85
2022-12-31T18:46:41.044Z,186.73
2022-12-31T18:49:48.738Z,166.82
2022-12-31T18:52:52.805Z,172.45
2022-12-31T18:55:57.926Z,159.80
2022-12-31T18:59:03.431Z,161.77
2022-12-31T19:02:15.367Z,160.65
2022-12-31T19:05:31.184Z,170.67
2022-12-31T19:08:36.657Z,157.12
2022-12-31T19:11:41.176Z,159.12
2022-12-31T19:14:46.293Z,160.52
2022-12-31T19:17:49.751Z,179.70
2022-12-31T19:20:52.971Z,202.75
2022-12-31T19:23:56.643Z,198.95
2022-12-31T19:27:01.133Z,286.83
2022-12-31T19:30:05.160Z,213.95
2022-12-31T19:33:11.316Z,199.50
2022-12-31T19:36:20.313Z,224.83
2022-12-31T19:39:23.488Z,228.62
2022-12-31T19:42:27.247Z,212.93
2022-12-31T19:45:32.404Z,208.07
2022-12-31T19:48:40.717Z,182.18
2022-12-31T19:51:43.954Z,188.10
2022-12-31T19:54:47.578Z,186.23
2022-12-31T19:57:51.474Z,169.87
2022-12-31T20:01:02.346Z,189.10
2022-12-31T20:04:06.930Z,193.13
2022-12-31T20:07:10.217Z,200.83
2022-12-31T20:10:14.732Z,193.50
2022-12-31T20:13:19.107Z,202.75
2022-12-31T20:16:24.704Z,205.15
2022-12-31T20:19:28.024Z,207.75
2022-12-31T20:22:31.956Z,253.40
2022-12-31T20:25:35.146Z,251.43
2022-12-31T20:28:40.727Z,245.93
2022-12-31T20:31:44.068Z,251.50
2022-12-31T20:34:47.549Z,252.62
2022-12-31T20:37:50.852Z,238.77
2022-12-31T20:40:54.508Z,237.88
2022-12-31T20:44:01.288Z,247.45
2022-12-31T20:47:04.815Z,218.85
2022-12-31T20:50:11.879Z,217.02
2022-12-31T20:53:15.580Z,221.30
2022-12-31T20:56:19.253Z,212.55
2022-12-31T20:59:22.755Z,200.83
2022-12-31T21:02:40.215Z,210.30
2022-12-31T21:05:52.243Z,204.50
2022-12-31T21:09:00.095Z,212.60
2022-12-31T21:12:21.945Z,216.65
2022-12-31T21:15:25.147Z,195.60
2022-12-31T21:18:29.717Z,200.40
2022-12-31T21:21:33.887Z,208.48
2022-12-31T21:24:39.248Z,203.88
2022-12-31T21:27:42.664Z,199.27
2022-12-31T21:30:47.355Z,208.30
2022-12-31T21:33:51.680Z,190.05
2022-12-31T21:36:55.681Z,221.13
2022-12-31T21:39:59.024Z,200.30
2022-12-31T21:43:03.132Z,235.15
2022-12-31T21:46:07.708Z,277.00
2022-12-31T21:49:11.153Z,201.30
2022-12-31T21:52:28.006Z,255.82
2022-12-31T21:55:50.154Z,290.62
2022-12-31T21:59:16.954Z,312.52
2022-12-31T22:02:39.596Z,262.60
2022-12-31T22:06:14.701Z,292.73
2022-12-31T22:09:17.867Z,192.60
2022-12-31T22:12:23.141Z,277.50
2022-12-31T22:15:27.211Z,198.73
2022-12-31T22:18:32.325Z,197.40
2022-12-31T22:21:35.685Z,207.68
2022-12-31T22:24:39.213Z,291.48
2022-12-31T22:27:53.041Z,321.75
2022-12-31T22:31:08.205Z,288.10
2022-12-31T22:34:11.542Z,203.50
2022-12-31T22:37:46.555Z,200.87
2022-12-31T22:40:38.091Z,183.00
2022-12-31T22:43:44.012Z,193.80
2022-12-31T22:46:49.342Z,233.85
2022-12-31T22:49:58.198Z,365.75
2022-12-31T22:53:02.920Z,246.85
2022-12-31T22:56:09.165Z,289.35
2022-12-31T22:59:12.751Z,392.10
2022-12-31T23:02:17.490Z,463.87
2022-12-31T23:05:20.633Z,413.27
2022-12-31T23:08:24.282Z,543.30
2022-12-31T23:11:27.560Z,482.30
2022-12-31T23:14:50.934Z,468.20
2022-12-31T23:18:13.616Z,421.77
2022-12-31T23:21:36.483Z,788.08
2022-12-31T23:24:40.770Z,511.12
2022-12-31T23:27:44.258Z,545.97
2022-12-31T23:30:49.329Z,603.60
2022-12-31T23:33:54.300Z,617.55
2022-12-31T23:36:57.669Z,620.23
2022-12-31T23:40:01.369Z,613.95
2022-12-31T23:43:06.567Z,444.48
2022-12-31T23:46:11.229Z,452.97
2022-12-31T23:49:15.062Z,581.97
2022-12-31T23:52:20.489Z,775.30
2022-12-31T23:55:23.860Z,741.30
2022-12-31T23:58:27.419Z,711.90
